Time;durP1;ratioP1;P1;durP2;ratioP2;P2;SDS_P1;SDS_P2;PMS_P1;PMS_P2;Temp;Humidity;BMP_temperature;BMP_pressure;BME280_temperature;BME280_humidity;BME280_pressure;Samples;Min_cycle;Max_cycle;Signal;HPM_P1;HPM_P2
2023/01/13 00:00:10;;;;;;;13.55;2.97;;;8.80;99.90;;;;;;5020992;28;20142;-73
2023/01/13 00:02:36;;;;;;;21.90;3.75;;;8.70;99.90;;;;;;5020856;28;20045;-73
2023/01/13 00:05:02;;;;;;;19.90;4.13;;;8.70;99.90;;;;;;5007675;28;20075;-73
2023/01/13 00:07:28;;;;;;;;;;;8.70;99.90;;;;;;5009662;28;20049;-73
2023/01/13 00:09:53;;;;;;;15.50;2.92;;;8.70;99.90;;;;;;5003670;28;19923;-73
2023/01/13 00:12:19;;;;;;;11.93;3.80;;;8.60;99.90;;;;;;5024913;28;20107;-73
2023/01/13 00:14:45;;;;;;;14.17;3.53;;;8.60;99.90;;;;;;5006497;28;20052;-73
2023/01/13 00:17:10;;;;;;;26.67;3.30;;;8.60;99.90;;;;;;5005675;28;20053;-73
2023/01/13 00:19:36;;;;;;;16.73;3.97;;;8.60;99.90;;;;;;5002539;28;20698;-73
2023/01/13 00:22:02;;;;;;;18.13;2.57;;;8.50;99.90;;;;;;5022760;28;20495;-73
2023/01/13 00:24:27;;;;;;;13.53;3.47;;;8.50;99.90;;;;;;4999359;28;20557;-73
2023/01/13 00:26:53;;;;;;;14.27;3.50;;;8.50;99.90;;;;;;5022716;28;20521;-71
2023/01/13 00:29:18;;;;;;;23.30;3.57;;;8.50;99.90;;;;;;4996966;28;20506;-71
2023/01/13 00:31:44;;;;;;;21.27;4.60;;;8.40;99.90;;;;;;4999810;28;20049;-71
2023/01/13 00:34:10;;;;;;;14.47;3.40;;;8.40;99.90;;;;;;5013159;28;20042;-73
2023/01/13 00:36:35;;;;;;;17.40;3.50;;;8.50;99.90;;;;;;5008122;28;20415;-72
2023/01/13 00:39:02;;;;;;;24.77;4.50;;;8.50;99.90;;;;;;5007474;28;20406;-72
2023/01/13 00:43:21;;;;;;;22.98;3.60;;;8.40;99.90;;;;;;5016238;28;20041;-72
2023/01/13 00:44:13;;;;;;;18.75;3.05;;;8.40;99.90;;;;;;4999477;28;20045;-72
2023/01/13 00:46:38;;;;;;;21.57;4.07;;;8.40;99.90;;;;;;5020981;28;20119;-72
2023/01/13 00:49:04;;;;;;;20.23;3.37;;;8.40;99.90;;;;;;5018222;28;20041;-72
2023/01/13 00:51:30;;;;;;;25.17;3.43;;;8.30;99.90;;;;;;5009849;28;20049;-72
2023/01/13 00:53:57;;;;;;;25.70;3.10;;;8.30;99.90;;;;;;5007458;28;20053;-71
2023/01/13 00:56:23;;;;;;;16.98;4.30;;;8.30;99.90;;;;;;5020587;28;20045;-72
2023/01/13 00:58:50;;;;;;;;;;;8.30;99.90;;;;;;5007032;28;20403;-72
2023/01/13 01:01:19;;;;;;;15.68;3.20;;;8.30;99.90;;;;;;4992170;28;20333;-72
2023/01/13 01:03:50;;;;;;;23.30;3.55;;;8.20;99.90;;;;;;5025063;28;20056;-72
2023/01/13 01:06:18;;;;;;;15.25;2.67;;;8.20;99.90;;;;;;5007916;28;20144;-72
2023/01/13 01:08:44;;;;;;;21.35;4.13;;;8.20;99.90;;;;;;5017683;28;20540;-72
2023/01/13 01:11:12;;;;;;;26.67;3.07;;;8.30;99.90;;;;;;5021889;28;20076;-72
2023/01/13 01:13:38;;;;;;;22.45;4.18;;;8.20;99.90;;;;;;5019840;28;20561;-72
2023/01/13 01:16:06;;;;;;;20.23;3.37;;;8.20;99.90;;;;;;5009127;28;20076;-72
2023/01/13 01:18:37;;;;;;;18.52;3.60;;;8.20;99.90;;;;;;5003048;28;20045;-72
2023/01/13 01:21:03;;;;;;;22.08;4.22;;;8.20;99.90;;;;;;5006496;28;20507;-72
2023/01/13 01:23:30;;;;;;;23.88;4.45;;;8.20;99.90;;;;;;5005299;28;20048;-72
2023/01/13 01:26:00;;;;;;;;;;;8.20;99.90;;;;;;5027180;28;20446;-73
2023/01/13 01:28:26;;;;;;;20.75;3.20;;;8.10;99.90;;;;;;5020847;28;19948;-72
2023/01/13 01:30:53;;;;;;;14.77;3.77;;;8.10;99.90;;;;;;5003491;28;20049;-73
2023/01/13 01:33:18;;;;;;;19.70;4.88;;;8.10;99.90;;;;;;5016089;28;20033;-72
2023/01/13 01:35:44;;;;;;;23.03;3.20;;;8.10;99.90;;;;;;4999860;28;20033;-72
2023/01/13 01:38:10;;;;;;;22.57;3.60;;;8.10;99.90;;;;;;5001622;28;20220;-72
2023/01/13 01:40:35;;;;;;;20.33;3.87;;;8.10;99.90;;;;;;5008144;28;20037;-72
2023/01/13 01:45:45;;;;;;;17.35;3.40;;;8.20;99.90;;;;;;5007121;28;20056;-72
2023/01/13 01:48:11;;;;;;;19.20;4.10;;;8.20;99.90;;;;;;5023674;28;20188;-72
2023/01/13 01:50:38;;;;;;;20.95;3.45;;;8.10;99.90;;;;;;5015113;28;20053;-72
2023/01/13 01:53:12;;;;;;;22.55;3.67;;;8.10;99.90;;;;;;5024522;28;20061;-72
2023/01/13 01:55:38;;;;;;;19.63;3.05;;;8.10;99.90;;;;;;5021666;28;20117;-72
2023/01/13 01:58:30;;;;;;;28.48;4.45;;;8.10;99.90;;;;;;5023687;28;20052;-72
2023/01/13 02:00:56;;;;;;;21.95;3.00;;;8.00;99.90;;;;;;5006770;28;20045;-72
2023/01/13 02:03:22;;;;;;;25.15;3.80;;;8.10;99.90;;;;;;5020211;28;20041;-72
2023/01/13 02:05:47;;;;;;;21.30;3.03;;;8.10;99.90;;;;;;5024379;28;20041;-72
2023/01/13 02:08:13;;;;;;;24.10;4.13;;;8.10;99.90;;;;;;5007036;28;20054;-72
2023/01/13 02:10:43;;;;;;;21.05;3.42;;;8.10;99.90;;;;;;5024572;28;20049;-72
2023/01/13 02:13:11;;;;;;;16.67;3.88;;;8.10;99.90;;;;;;4998546;28;20057;-72
2023/01/13 02:15:50;;;;;;;26.92;4.35;;;8.10;99.90;;;;;;5011102;28;20045;-72
2023/01/13 02:18:52;;;;;;;21.42;3.88;;;8.20;99.90;;;;;;5019181;28;20064;-72
2023/01/13 02:21:39;;;;;;;26.55;3.85;;;8.20;99.90;;;;;;5010873;28;20150;-72
2023/01/13 02:27:17;;;;;;;15.85;3.17;;;8.20;99.90;;;;;;5003701;28;20053;-72
2023/01/13 02:33:18;;;;;;;16.20;3.55;;;8.20;99.90;;;;;;5021605;28;20040;-73
2023/01/13 02:36:14;;;;;;;22.23;3.90;;;8.20;99.90;;;;;;5008528;28;20037;-72
2023/01/13 02:38:58;;;;;;;24.42;3.90;;;8.30;99.90;;;;;;4991440;28;20041;-72
2023/01/13 02:44:52;;;;;;;16.88;4.28;;;8.40;99.90;;;;;;5009990;28;20638;-72
2023/01/13 02:47:21;;;;;;;18.90;3.58;;;8.40;99.90;;;;;;5002556;28;20056;-72
2023/01/13 02:49:51;;;;;;;22.08;4.20;;;8.40;99.90;;;;;;5026853;28;20037;-72
2023/01/13 02:52:36;;;;;;;30.33;4.78;;;8.50;99.90;;;;;;5011530;28;20087;-73
2023/01/13 02:55:13;;;;;;;30.90;5.70;;;8.50;99.90;;;;;;5026649;28;20545;-72
2023/01/13 02:57:41;;;;;;;17.08;3.97;;;8.50;99.90;;;;;;4991741;28;20046;-72
2023/01/13 03:00:11;;;;;;;21.88;4.25;;;8.50;99.90;;;;;;5017962;28;20049;-72
2023/01/13 03:02:37;;;;;;;17.23;3.25;;;8.50;99.90;;;;;;5025779;28;20033;-72
2023/01/13 03:05:03;;;;;;;21.77;4.40;;;8.50;99.90;;;;;;5010690;28;20041;-72
2023/01/13 03:07:41;;;;;;;17.52;2.92;;;8.50;99.90;;;;;;5007278;28;20049;-72
2023/01/13 03:10:37;;;;;;;20.23;4.25;;;8.50;99.90;;;;;;5006662;28;20135;-72
2023/01/13 03:13:17;;;;;;;14.50;2.40;;;8.50;99.90;;;;;;5007028;28;20053;-72
2023/01/13 03:16:13;;;;;;;23.98;4.43;;;8.40;99.90;;;;;;5019264;28;20091;-72
2023/01/13 03:18:49;;;;;;;27.20;4.10;;;8.40;99.90;;;;;;5008272;28;20042;-72
2023/01/13 03:21:20;;;;;;;21.30;3.30;;;8.50;99.90;;;;;;5005881;28;20045;-72
2023/01/13 03:23:51;;;;;;;14.00;2.75;;;8.50;99.90;;;;;;5028378;28;20046;-72
2023/01/13 03:26:32;;;;;;;16.25;3.17;;;8.50;99.90;;;;;;5024289;28;20077;-72
2023/01/13 03:29:05;;;;;;;21.60;3.38;;;8.50;99.90;;;;;;5018435;28;20056;-72
2023/01/13 03:31:35;;;;;;;16.35;2.53;;;8.50;99.90;;;;;;5006199;28;20045;-72
2023/01/13 03:34:11;;;;;;;20.05;3.95;;;8.60;99.90;;;;;;5024350;28;20101;-72
2023/01/13 03:36:39;;;;;;;26.88;3.60;;;8.60;99.90;;;;;;5021274;28;20033;-72
2023/01/13 03:39:11;;;;;;;24.23;3.22;;;8.60;99.90;;;;;;5009979;28;20041;-72
2023/01/13 03:41:56;;;;;;;19.52;3.35;;;8.60;99.90;;;;;;5020571;28;20120;-72
2023/01/13 03:44:28;;;;;;;16.83;2.78;;;8.60;99.90;;;;;;5027251;28;20353;-72
2023/01/13 03:47:35;;;;;;;19.00;2.97;;;8.50;99.90;;;;;;5016153;28;20123;-72
2023/01/13 03:50:25;;;;;;;10.20;2.53;;;8.60;99.90;;;;;;4941049;28;20058;-72
2023/01/13 03:53:25;;;;;;;21.90;4.05;;;8.50;99.90;;;;;;5027215;28;20120;-72
2023/01/13 03:55:58;;;;;;;16.60;2.75;;;8.50;99.90;;;;;;4991078;28;20085;-72
2023/01/13 03:58:31;;;;;;;29.48;3.47;;;8.50;99.90;;;;;;5026022;28;20048;-72
2023/01/13 04:01:19;;;;;;;12.32;3.00;;;8.40;99.90;;;;;;5021881;28;20045;-72
2023/01/13 04:04:01;;;;;;;20.95;3.42;;;8.40;99.90;;;;;;4999015;28;20088;-72
2023/01/13 04:07:14;;;;;;;22.13;4.00;;;8.40;99.90;;;;;;5000286;28;20068;-72
2023/01/13 04:09:48;;;;;;;19.30;2.75;;;8.40;99.90;;;;;;4998330;28;20059;-72
2023/01/13 04:13:01;;;;;;;18.83;3.10;;;8.30;99.90;;;;;;5024924;28;20359;-72
2023/01/13 04:15:39;;;;;;;21.60;3.67;;;8.30;99.90;;;;;;5005177;28;20083;-72
2023/01/13 04:18:20;;;;;;;20.42;3.42;;;8.30;99.90;;;;;;5003275;28;20108;-73
2023/01/13 04:20:48;;;;;;;16.40;2.75;;;8.40;99.90;;;;;;5008982;28;20041;-72
2023/01/13 04:23:15;;;;;;;22.17;3.17;;;8.40;99.90;;;;;;5022271;28;20566;-72
2023/01/13 04:25:42;;;;;;;28.73;5.50;;;8.40;99.90;;;;;;5009763;28;20045;-72
2023/01/13 04:28:08;;;;;;;16.45;3.05;;;8.40;99.90;;;;;;5007612;28;20570;-72
2023/01/13 04:30:34;;;;;;;22.17;3.45;;;8.40;99.90;;;;;;5006186;28;20234;-72
2023/01/13 04:33:00;;;;;;;17.90;3.88;;;8.50;99.90;;;;;;5026217;28;20204;-72
2023/01/13 04:35:29;;;;;;;23.13;3.37;;;8.50;99.90;;;;;;4991079;28;20666;-72
2023/01/13 04:37:54;;;;;;;13.45;3.25;;;8.50;99.90;;;;;;5000520;28;20103;-72
2023/01/13 04:40:20;;;;;;;23.00;3.90;;;8.50;99.90;;;;;;5020862;28;20033;-72
2023/01/13 04:42:46;;;;;;;16.20;3.00;;;8.50;99.90;;;;;;4986363;28;20038;-72
2023/01/13 04:45:12;;;;;;;13.87;3.00;;;8.50;99.90;;;;;;5006295;28;20322;-72
2023/01/13 04:47:38;;;;;;;16.75;3.20;;;8.60;99.90;;;;;;5007743;28;20483;-72
2023/01/13 04:50:04;;;;;;;19.55;3.60;;;8.60;99.90;;;;;;5007323;28;20053;-72
2023/01/13 04:52:29;;;;;;;15.10;2.58;;;8.60;99.90;;;;;;5007142;28;20144;-72
2023/01/13 04:54:55;;;;;;;14.43;2.70;;;8.60;99.90;;;;;;5027128;28;20175;-72
2023/01/13 04:57:20;;;;;;;16.17;3.37;;;8.60;99.90;;;;;;5007300;28;20480;-72
2023/01/13 04:59:46;;;;;;;16.77;3.13;;;8.60;99.90;;;;;;5021634;28;20048;-72
2023/01/13 05:02:18;;;;;;;17.50;3.00;;;8.60;99.90;;;;;;5005565;28;20483;-72
2023/01/13 05:04:46;;;;;;;20.77;3.47;;;8.70;99.90;;;;;;5008174;28;20060;-72
2023/01/13 05:07:12;;;;;;;10.75;2.40;;;8.60;99.90;;;;;;5020271;28;20182;-72
2023/01/13 05:09:38;;;;;;;11.82;2.58;;;8.60;99.90;;;;;;5025875;28;20502;-72
2023/01/13 05:17:32;;;;;;;16.55;3.10;;;8.60;99.90;;;;;;5003003;28;20484;-72
2023/01/13 05:19:58;;;;;;;18.23;2.53;;;8.60;99.90;;;;;;5011270;28;20043;-72
2023/01/13 05:25:21;;;;;;;17.50;3.67;;;8.60;99.90;;;;;;5008543;28;20104;-68
2023/01/13 05:27:55;;;;;;;15.38;1.90;;;8.70;99.90;;;;;;5013133;28;20040;-68
2023/01/13 05:30:26;;;;;;;14.32;2.58;;;8.70;99.90;;;;;;5028804;28;20041;-68
2023/01/13 05:32:52;;;;;;;9.98;2.10;;;8.70;99.90;;;;;;5029615;28;20132;-68
2023/01/13 05:35:18;;;;;;;11.07;3.17;;;8.70;99.90;;;;;;4994592;28;20129;-67
2023/01/13 05:37:44;;;;;;;12.13;2.93;;;8.70;99.90;;;;;;5011484;28;20137;-68
2023/01/13 05:43:19;;;;;;;9.27;2.25;;;8.70;99.90;;;;;;5024418;28;20044;-75
2023/01/13 05:46:08;;;;;;;14.10;2.45;;;8.70;99.90;;;;;;4999940;28;20594;-75
2023/01/13 05:48:39;;;;;;;13.05;2.58;;;8.60;99.90;;;;;;4997826;28;20053;-74
2023/01/13 05:51:07;;;;;;;13.30;2.85;;;8.60;99.90;;;;;;5006775;28;20063;-74
2023/01/13 05:53:33;;;;;;;17.40;3.38;;;8.60;99.90;;;;;;5024492;28;20041;-76
2023/01/13 05:56:02;;;;;;;10.07;2.63;;;8.70;99.90;;;;;;5022938;22;20045;-69
2023/01/13 05:58:27;;;;;;;16.08;3.25;;;8.60;99.90;;;;;;5020924;28;20099;-71
2023/01/13 06:01:02;;;;;;;16.50;3.37;;;8.60;99.90;;;;;;5016004;28;20067;-69
2023/01/13 06:03:28;;;;;;;17.17;2.58;;;8.60;99.90;;;;;;5006011;28;20049;-69
2023/01/13 06:06:00;;;;;;;12.33;2.37;;;8.60;99.90;;;;;;5004836;28;20505;-70
2023/01/13 06:08:27;;;;;;;16.45;2.70;;;8.60;99.90;;;;;;5031133;28;20052;-69
2023/01/13 06:10:52;;;;;;;12.13;3.47;;;8.60;99.90;;;;;;5020079;28;20540;-68
2023/01/13 06:13:18;;;;;;;17.70;4.18;;;8.60;99.90;;;;;;5015379;28;20128;-70
2023/01/13 06:15:44;;;;;;;11.40;2.20;;;8.60;99.90;;;;;;5025242;28;20030;-69
2023/01/13 06:18:10;;;;;;;14.27;2.80;;;8.70;99.90;;;;;;5007972;28;20089;-69
2023/01/13 06:20:35;;;;;;;11.90;2.20;;;8.70;99.90;;;;;;5005304;28;20045;-68
2023/01/13 06:23:02;;;;;;;10.20;2.27;;;8.70;99.90;;;;;;5014307;28;20773;-69
2023/01/13 06:25:30;;;;;;;;;;;8.60;99.90;;;;;;5010114;28;20124;-69
2023/01/13 06:27:58;;;;;;;14.40;2.67;;;8.60;99.90;;;;;;5003696;28;19960;-71
2023/01/13 06:30:29;;;;;;;13.80;2.22;;;8.50;99.90;;;;;;5020531;28;20041;-69
2023/01/13 06:33:00;;;;;;;12.20;3.28;;;8.50;99.90;;;;;;5017424;28;20069;-69
2023/01/13 06:35:33;;;;;;;18.10;3.40;;;8.50;99.90;;;;;;5000045;28;20096;-68
2023/01/13 06:38:02;;;;;;;13.07;2.35;;;8.40;99.90;;;;;;5015840;28;20057;-69
2023/01/13 06:40:28;;;;;;;12.32;2.30;;;8.40;99.90;;;;;;5028123;28;20041;-69
2023/01/13 06:43:14;;;;;;;13.13;2.03;;;8.40;99.90;;;;;;5022292;28;20373;-70
2023/01/13 06:45:59;;;;;;;13.80;2.42;;;8.30;99.90;;;;;;5006778;28;20045;-72
2023/01/13 06:48:31;;;;;;;10.85;3.35;;;8.30;99.90;;;;;;5010428;28;20120;-70
2023/01/13 06:50:58;;;;;;;8.73;2.13;;;8.20;99.90;;;;;;5023417;28;20475;-72
2023/01/13 06:53:23;;;;;;;16.77;3.05;;;8.20;99.90;;;;;;5006957;28;20060;-72
2023/01/13 06:55:49;;;;;;;20.13;2.93;;;8.10;99.90;;;;;;5004503;28;20546;-69
2023/01/13 06:58:15;;;;;;;16.97;2.20;;;8.10;99.90;;;;;;5021725;28;20045;-70
2023/01/13 07:00:40;;;;;;;10.82;1.98;;;8.00;99.90;;;;;;5019311;28;20042;-70
2023/01/13 07:03:12;;;;;;;16.90;2.17;;;7.90;99.90;;;;;;5023911;28;20494;-70
2023/01/13 07:05:38;;;;;;;11.75;1.80;;;7.90;99.90;;;;;;5025287;28;20045;-70
2023/01/13 07:08:04;;;;;;;15.18;2.90;;;7.80;99.90;;;;;;5017867;28;20037;-70
2023/01/13 07:10:30;;;;;;;13.00;2.72;;;7.80;99.90;;;;;;4989795;28;20340;-70
2023/01/13 07:15:57;;;;;;;;;;;7.70;99.90;;;;;;5022166;28;20065;-70
2023/01/13 07:18:23;;;;;;;13.90;2.10;;;7.70;99.90;;;;;;5023934;28;19971;-70
2023/01/13 07:21:00;;;;;;;21.58;3.45;;;7.70;99.90;;;;;;5001600;28;20533;-70
2023/01/13 07:23:28;;;;;;;13.60;2.53;;;7.70;99.90;;;;;;5007349;28;20060;-69
2023/01/13 07:25:55;;;;;;;12.88;3.00;;;7.60;99.90;;;;;;5027590;28;20134;-69
2023/01/13 07:28:21;;;;;;;14.38;2.50;;;7.70;99.90;;;;;;5006617;28;20120;-70
2023/01/13 07:30:46;;;;;;;17.77;2.57;;;7.60;99.90;;;;;;5019486;28;20140;-70
2023/01/13 07:33:12;;;;;;;20.37;2.27;;;7.60;99.90;;;;;;5026331;28;20075;-70
2023/01/13 07:35:38;;;;;;;17.90;3.20;;;7.60;99.90;;;;;;5034658;28;20092;-70
2023/01/13 07:38:03;;;;;;;15.17;2.43;;;7.60;99.90;;;;;;5024645;28;20205;-70
2023/01/13 07:40:29;;;;;;;18.83;3.50;;;7.60;99.90;;;;;;5022095;28;20057;-70
2023/01/13 07:45:39;;;;;;;13.48;2.35;;;7.60;99.90;;;;;;5034234;28;20040;-69
2023/01/13 07:48:05;;;;;;;20.03;2.53;;;7.60;99.90;;;;;;5028672;28;20041;-69
2023/01/13 07:50:31;;;;;;;14.03;2.53;;;7.60;99.90;;;;;;5011245;28;20095;-69
2023/01/13 07:52:57;;;;;;;9.93;2.10;;;7.70;99.90;;;;;;5032414;28;20049;-69
2023/01/13 07:55:23;;;;;;;10.43;2.20;;;7.70;99.90;;;;;;5009043;28;20148;-69
2023/01/13 07:57:48;;;;;;;19.53;2.90;;;7.70;99.90;;;;;;5028659;28;20252;-69
2023/01/13 08:00:14;;;;;;;11.40;2.30;;;7.70;99.90;;;;;;5011264;28;20075;-69
2023/01/13 08:02:40;;;;;;;18.55;2.92;;;7.80;99.90;;;;;;5028961;28;20073;-69
2023/01/13 08:05:06;;;;;;;20.33;3.60;;;7.80;99.90;;;;;;5034580;28;20436;-69
2023/01/13 08:07:32;;;;;;;15.55;2.55;;;7.80;99.90;;;;;;5032970;28;20432;-69
2023/01/13 08:09:57;;;;;;;16.70;2.57;;;7.80;99.90;;;;;;5004119;28;20052;-69
2023/01/13 08:15:08;;;;;;;15.48;2.53;;;7.90;99.90;;;;;;5022923;28;20045;-69
2023/01/13 08:17:35;;;;;;;21.95;3.83;;;7.90;99.90;;;;;;5025240;28;20049;-69
2023/01/13 08:20:01;;;;;;;13.25;3.72;;;7.90;99.90;;;;;;5031354;28;20073;-69
2023/01/13 08:22:29;;;;;;;14.27;2.53;;;7.90;99.90;;;;;;5028291;28;20503;-69
2023/01/13 08:24:55;;;;;;;18.20;3.13;;;8.00;99.90;;;;;;5022954;28;20049;-69
2023/01/13 08:27:21;;;;;;;17.65;2.72;;;8.00;99.90;;;;;;5026056;28;20385;-70
2023/01/13 08:29:47;;;;;;;20.83;2.23;;;8.00;99.90;;;;;;5027094;28;20038;-68
2023/01/13 08:32:12;;;;;;;15.63;3.93;;;8.10;99.90;;;;;;5013857;28;20072;-69
2023/01/13 08:34:38;;;;;;;17.50;2.93;;;8.10;99.90;;;;;;4998682;28;20045;-69
2023/01/13 08:37:04;;;;;;;17.80;2.67;;;8.10;99.90;;;;;;5029486;28;20042;-69
2023/01/13 08:39:29;;;;;;;21.30;2.87;;;8.20;99.90;;;;;;5036160;28;20190;-73
2023/01/13 08:41:55;;;;;;;11.80;2.30;;;8.20;99.90;;;;;;5024794;28;20045;-69
2023/01/13 08:44:22;;;;;;;13.33;2.97;;;8.30;99.90;;;;;;5013639;28;20038;-69
2023/01/13 08:46:48;;;;;;;12.90;2.47;;;8.30;99.90;;;;;;5024035;28;20785;-69
2023/01/13 08:49:16;;;;;;;11.27;2.33;;;8.30;99.90;;;;;;5017632;28;20034;-69
2023/01/13 08:51:41;;;;;;;8.25;2.17;;;8.30;99.90;;;;;;5030261;28;20083;-69
2023/01/13 08:54:07;;;;;;;12.67;2.47;;;8.30;99.90;;;;;;5026869;28;20076;-69
2023/01/13 08:56:34;;;;;;;13.17;2.40;;;8.30;99.90;;;;;;5027806;28;20117;-69
2023/01/13 08:59:00;;;;;;;16.77;2.80;;;8.20;99.90;;;;;;5016974;28;20102;-69
2023/01/13 09:01:26;;;;;;;20.02;2.30;;;8.10;99.90;;;;;;5022054;28;20038;-69
2023/01/13 09:03:52;;;;;;;16.73;2.58;;;8.10;99.90;;;;;;5024670;28;20045;-69
2023/01/13 09:06:18;;;;;;;10.88;1.98;;;8.00;99.90;;;;;;5034002;28;20403;-68
2023/01/13 09:08:44;;;;;;;13.35;2.40;;;7.90;99.90;;;;;;5014104;28;20134;-68
2023/01/13 09:14:03;;;;;;;8.48;1.67;;;7.90;99.90;;;;;;5026034;28;20042;-69
2023/01/13 09:16:28;;;;;;;14.87;2.40;;;7.80;99.90;;;;;;5033835;28;20055;-69
2023/01/13 09:18:54;;;;;;;17.67;2.77;;;7.80;99.90;;;;;;5028026;28;20045;-69
2023/01/13 09:21:21;;;;;;;15.50;2.87;;;7.80;99.90;;;;;;5009143;28;20060;-68
2023/01/13 09:23:47;;;;;;;17.83;2.28;;;7.80;99.90;;;;;;5014790;28;20036;-69
2023/01/13 09:26:16;;;;;;;17.27;2.85;;;7.80;99.90;;;;;;5027895;28;20053;-69
2023/01/13 09:28:42;;;;;;;7.50;1.80;;;7.80;99.90;;;;;;5034375;28;20052;-69
2023/01/13 09:31:08;;;;;;;14.50;2.50;;;7.80;99.90;;;;;;5005822;28;20045;-68
2023/01/13 09:36:18;;;;;;;14.52;2.75;;;7.80;99.90;;;;;;5032804;28;20112;-69
2023/01/13 09:38:44;;;;;;;9.35;2.28;;;7.80;99.90;;;;;;5028276;28;20061;-68
2023/01/13 09:44:26;;;;;;;19.77;3.23;;;7.70;99.90;;;;;;5030444;28;20056;-69
2023/01/13 09:46:58;;;;;;;10.00;2.10;;;7.80;99.90;;;;;;5010682;28;20059;-68
2023/01/13 09:49:31;;;;;;;14.63;3.60;;;7.90;99.90;;;;;;5027229;28;20087;-69
2023/01/13 09:52:19;;;;;;;10.68;2.67;;;7.80;99.90;;;;;;5021184;28;20053;-69
2023/01/13 09:55:06;;;;;;;19.50;2.42;;;7.80;99.90;;;;;;5032135;28;20045;-69
2023/01/13 09:57:36;;;;;;;9.27;2.58;;;7.80;99.90;;;;;;5033850;28;20533;-69
2023/01/13 10:00:09;;;;;;;16.20;2.75;;;7.80;99.90;;;;;;5017348;28;20080;-69
2023/01/13 10:03:17;;;;;;;13.00;1.88;;;7.80;99.90;;;;;;5028272;28;20172;-69
2023/01/13 10:05:43;;;;;;;11.88;2.63;;;7.80;99.90;;;;;;5014449;28;20055;-69
2023/01/13 10:08:11;;;;;;;;;;;7.80;99.90;;;;;;5018346;28;20156;-69
2023/01/13 10:10:44;;;;;;;13.13;2.38;;;7.80;99.90;;;;;;5028419;28;19920;-69
2023/01/13 10:13:24;;;;;;;9.48;2.10;;;7.80;99.90;;;;;;5017526;28;20057;-71
2023/01/13 10:16:02;;;;;;;13.93;2.45;;;7.80;99.90;;;;;;5005824;28;20037;-69
2023/01/13 10:18:33;;;;;;;23.20;2.13;;;7.90;99.90;;;;;;5023863;28;20056;-69
2023/01/13 10:21:26;;;;;;;15.52;2.25;;;7.90;99.90;;;;;;5024946;28;20090;-69
2023/01/13 10:24:12;;;;;;;17.17;3.60;;;7.90;99.90;;;;;;5015524;28;20048;-69
2023/01/13 10:26:53;;;;;;;13.25;2.47;;;7.90;99.90;;;;;;5000215;28;20489;-69
2023/01/13 10:29:28;;;;;;;12.98;2.30;;;8.00;99.90;;;;;;5022009;28;20049;-69
2023/01/13 10:31:55;;;;;;;12.65;2.58;;;8.00;99.90;;;;;;5009707;28;20038;-69
2023/01/13 10:34:22;;;;;;;19.67;2.30;;;8.00;99.90;;;;;;5028512;28;20086;-69
2023/01/13 10:37:01;;;;;;;14.77;2.08;;;8.00;99.90;;;;;;5010046;22;20049;-68
2023/01/13 10:39:37;;;;;;;14.75;2.95;;;8.00;99.90;;;;;;4981939;28;20534;-68
2023/01/13 10:42:05;;;;;;;13.55;2.60;;;8.00;99.90;;;;;;4968337;28;20546;-68
2023/01/13 10:44:30;;;;;;;14.05;2.22;;;8.00;99.90;;;;;;5012264;28;20128;-67
2023/01/13 10:46:58;;;;;;;14.40;2.83;;;8.10;99.90;;;;;;4983254;28;20148;-68
2023/01/13 10:49:31;;;;;;;11.50;2.13;;;8.10;99.90;;;;;;4973602;28;20190;-68
2023/01/13 10:51:57;;;;;;;13.82;2.35;;;8.10;99.90;;;;;;4996654;28;20128;-67
2023/01/13 10:54:25;;;;;;;7.57;1.67;;;8.10;99.90;;;;;;5004872;28;20125;-67
2023/01/13 10:57:17;;;;;;;13.50;3.42;;;8.20;99.90;;;;;;4986605;28;20124;-68
2023/01/13 10:59:43;;;;;;;11.88;2.22;;;8.20;99.90;;;;;;4990831;28;20057;-67
2023/01/13 11:02:25;;;;;;;8.67;1.63;;;8.20;99.90;;;;;;4990896;28;20095;-68
2023/01/13 11:04:54;;;;;;;11.40;2.47;;;8.20;99.90;;;;;;5006577;28;20051;-68
2023/01/13 11:07:35;;;;;;;13.27;2.75;;;8.20;99.90;;;;;;4987534;28;20123;-68
2023/01/13 11:10:22;;;;;;;11.95;2.70;;;8.20;99.90;;;;;;5005954;28;20057;-67
2023/01/13 11:13:09;;;;;;;8.25;2.08;;;8.20;99.90;;;;;;5010178;28;20688;-68
2023/01/13 11:15:45;;;;;;;10.68;2.17;;;8.30;99.90;;;;;;5009223;28;20041;-68
2023/01/13 11:18:27;;;;;;;10.93;2.10;;;8.30;99.90;;;;;;5002844;28;20522;-69
2023/01/13 11:20:54;;;;;;;12.23;2.53;;;8.30;99.90;;;;;;5005686;28;20670;-68
2023/01/13 11:23:31;;;;;;;14.55;2.35;;;8.40;99.90;;;;;;5003222;28;20092;-68
2023/01/13 11:26:04;;;;;;;13.43;2.38;;;8.40;99.90;;;;;;4984256;28;20054;-68
2023/01/13 11:28:43;;;;;;;15.02;1.80;;;8.50;99.90;;;;;;5002640;28;20058;-67
2023/01/13 11:31:38;;;;;;;12.50;2.70;;;8.50;99.90;;;;;;5002437;28;20052;-68
2023/01/13 11:34:11;;;;;;;10.82;2.42;;;8.60;99.90;;;;;;4991979;28;20042;-67
2023/01/13 11:36:42;;;;;;;10.07;1.20;;;8.60;99.90;;;;;;4995711;28;21977;-68
2023/01/13 11:39:55;;;;;;;7.72;1.48;;;8.60;99.90;;;;;;5000978;28;20077;-68
2023/01/13 11:42:48;;;;;;;11.13;1.92;;;8.60;99.90;;;;;;4869256;29;20040;-67
2023/01/13 11:45:31;;;;;;;12.05;1.70;;;8.60;99.90;;;;;;5004031;28;20049;-68
2023/01/13 11:48:00;;;;;;;12.65;2.05;;;8.60;99.90;;;;;;5002352;28;20042;-67
2023/01/13 11:50:49;;;;;;;12.30;1.42;;;8.60;99.90;;;;;;4999572;28;20044;-67
2023/01/13 11:53:40;;;;;;;6.18;1.33;;;8.60;99.90;;;;;;5003949;28;20526;-68
2023/01/13 11:56:29;;;;;;;9.95;1.50;;;8.60;99.90;;;;;;5017097;23;20142;-69
2023/01/13 11:59:23;;;;;;;7.97;2.20;;;8.60;99.90;;;;;;5023023;28;20051;-70
2023/01/13 12:02:14;;;;;;;13.25;1.65;;;8.70;99.90;;;;;;5023433;28;20087;-69
2023/01/13 12:04:50;;;;;;;10.15;2.55;;;8.70;99.90;;;;;;5021243;28;20041;-69
2023/01/13 12:07:55;;;;;;;8.20;1.63;;;8.80;99.90;;;;;;5030366;28;20348;-70
2023/01/13 12:10:39;;;;;;;6.88;1.70;;;8.80;99.90;;;;;;4924867;28;20066;-69
2023/01/13 12:13:28;;;;;;;8.82;2.10;;;8.90;99.90;;;;;;5020241;28;20446;-69
2023/01/13 12:16:05;;;;;;;8.80;1.73;;;8.90;99.90;;;;;;5024746;28;20047;-70
2023/01/13 12:18:58;;;;;;;8.93;1.60;;;8.90;99.90;;;;;;5045618;28;20073;-69
2023/01/13 12:21:39;;;;;;;9.68;1.60;;;8.90;99.90;;;;;;5044770;28;20048;-69
2023/01/13 12:24:17;;;;;;;5.93;1.83;;;8.90;99.90;;;;;;5040925;28;20491;-69
2023/01/13 12:26:51;;;;;;;13.13;1.52;;;9.00;99.90;;;;;;5027388;28;20132;-70
2023/01/13 12:29:31;;;;;;;10.27;2.05;;;8.90;99.90;;;;;;5027614;28;20418;-69
2023/01/13 12:32:00;;;;;;;11.98;1.60;;;8.90;99.90;;;;;;5045721;28;20048;-69
2023/01/13 12:34:56;;;;;;;5.00;1.60;;;9.00;99.90;;;;;;5027118;28;20099;-69
2023/01/13 12:37:41;;;;;;;5.97;1.35;;;9.00;99.90;;;;;;5044783;28;20044;-68
2023/01/13 12:40:21;;;;;;;12.70;1.70;;;9.00;99.90;;;;;;5018108;28;20408;-69
2023/01/13 12:45:46;;;;;;;11.65;1.60;;;9.00;99.90;;;;;;5028692;28;20049;-70
2023/01/13 12:48:51;;;;;;;9.37;2.00;;;9.00;99.90;;;;;;5044990;28;20380;-69
2023/01/13 12:51:49;;;;;;;6.95;1.50;;;9.00;99.90;;;;;;5016398;28;20049;-70
2023/01/13 12:54:52;;;;;;;9.98;2.05;;;9.10;99.90;;;;;;5007993;28;20056;-69
2023/01/13 12:57:20;;;;;;;9.15;1.33;;;9.00;99.90;;;;;;5018610;28;20390;-69
2023/01/13 12:59:58;;;;;;;6.22;1.40;;;9.00;99.90;;;;;;5044764;28;20137;-69
2023/01/13 13:02:36;;;;;;;8.02;1.40;;;9.00;99.90;;;;;;5018791;28;20045;-69
2023/01/13 13:05:43;;;;;;;6.65;1.30;;;9.00;99.90;;;;;;5020905;28;20403;-69
2023/01/13 13:08:23;;;;;;;8.07;1.23;;;9.00;99.90;;;;;;5025220;28;20063;-69
2023/01/13 13:11:01;;;;;;;10.85;1.70;;;9.10;99.90;;;;;;5026500;28;20526;-69
2023/01/13 13:13:46;;;;;;;12.10;1.85;;;9.00;99.90;;;;;;5040870;28;20459;-69
2023/01/13 13:16:28;;;;;;;7.93;1.48;;;9.10;99.90;;;;;;5030574;28;20041;-69
2023/01/13 13:19:21;;;;;;;10.25;1.30;;;9.10;99.90;;;;;;5041629;28;20501;-69
2023/01/13 13:22:12;;;;;;;5.50;1.52;;;9.10;99.90;;;;;;5025034;28;20041;-70
2023/01/13 13:24:39;;;;;;;10.50;2.72;;;9.10;99.90;;;;;;5044349;28;20044;-69
2023/01/13 13:27:18;;;;;;;9.07;1.45;;;9.10;99.90;;;;;;5041956;28;20053;-70
2023/01/13 13:30:05;;;;;;;8.23;1.35;;;9.10;99.90;;;;;;5030652;28;20041;-69
2023/01/13 13:33:05;;;;;;;5.57;1.30;;;9.00;99.90;;;;;;5023754;28;20084;-69
2023/01/13 13:36:01;;;;;;;3.88;0.90;;;9.10;99.90;;;;;;5044461;28;20045;-70
2023/01/13 13:47:21;;;;;;;7.07;1.08;;;9.10;99.90;;;;;;5021548;28;20162;-69
2023/01/13 13:49:52;;;;;;;11.95;1.67;;;9.10;99.90;;;;;;5040577;28;20131;-69
2023/01/13 13:52:39;;;;;;;5.03;1.20;;;9.10;99.90;;;;;;5018969;28;20203;-69
2023/01/13 13:55:17;;;;;;;19.63;2.13;;;9.10;99.90;;;;;;5027747;28;20125;-69
2023/01/13 13:57:46;;;;;;;7.97;1.42;;;9.00;99.90;;;;;;5033268;28;20064;-70
2023/01/13 14:00:16;;;;;;;7.80;1.40;;;9.10;99.90;;;;;;5006802;28;20076;-70
2023/01/13 14:02:57;;;;;;;7.85;1.23;;;9.10;99.90;;;;;;5044106;28;20532;-70
2023/01/13 14:05:29;;;;;;;12.20;1.58;;;9.00;99.90;;;;;;5025877;28;20090;-69
2023/01/13 14:08:01;;;;;;;8.30;1.52;;;9.00;99.90;;;;;;5024896;28;20124;-70
2023/01/13 14:10:30;;;;;;;6.28;1.17;;;9.00;99.90;;;;;;5043587;28;20486;-70
2023/01/13 14:12:57;;;;;;;10.85;2.13;;;9.00;99.90;;;;;;5020654;28;20497;-69